Xingtai, China
Current Conditions -  °F | °C
As of 1:00 PM on Tuesday 27 Jan 2015 (Local Time) from ZBSJ Reporting Station
Clear Clear  
Wind Chill: 34°   Ceiling: Unl
Heat Index: 34°   Visibility: 6mi
Dew Point:   Wind: 2mph
Humidity: 25%   Direction: 150°SSE
Pressure: 30.59"   Gusts: NA
Location:  37.07°N, 114.49°E
Report Text: ZBSJ 270500Z 15001MPS CAVOK 01/M17 Q1036 NOSIG
Loading
Personal Weather Stations






























Interactive Weather Map New forecast layout! Learn more

10-Day Weather Forecast

Advertisements
Track Severe Weather on mobile